Flight Number: AVA1044 Duration: 0:30
Departure: St.Moritz Samedan (LSZS) at 20:00 Distance: 78.2635 Nm
Arrival: Zurich (LSZH) at 20:30 Equipment: B1900D

Weather Information
Station name not available Jan 16, 2021 - 11:50 AM EST / 2021.01.16 1650 UTC
Wind: Variable at 3 MPH (3 KT):0
Visibility: greater than 7 mile(s):0 Temperature: 1 F (-17 C) Dew Point: -2 F (-19 C) Relative Humidity: 84% Pressure (altimeter): 29.97 in. Hg (1015 hPa)
ob: LSZS 161650Z VRB03KT CAVOK M17/M19 Q1015 RMK X TL170 cycle: 17
Sunrise: 07:02 Sunset: 15:58 (UTC)

Zurich-Kloten, Switzerland (LSZH) 47-29N 008-32E 432M Jan 16, 2021 - 11:50 AM EST / 2021.01.16 1650 UTC
Wind: from the SSE (150 degrees) at 3 MPH (3 KT) (direction variable):0
Visibility: 3 mile(s):0
Sky conditions: overcast Weather: mist Temperature: 24 F (-4 C) Dew Point: 23 F (-5 C) Relative Humidity: 92% Pressure (altimeter): 30.24 in. Hg (1024 hPa)
ob: LSZH 161650Z 15003KT 130V200 5000 BR FEW010 OVC013 M04/M05 Q1024 R88/29//// NOSIG cycle: 17
Sunrise: 07:11 Sunset: 16:00 (UTC)

TAF:2021/01/16 15:33 TAF LSZH 161425Z 1615/1721 VRB02KT 4500 BR OVC008 TXM04/1615Z TNM03/1701Z TX01/1715Z PROB40 TEMPO 1615/1620 SCT013 BECMG 1621/1623 2000 -SN BKN007 TEMPO 1700/1708 0800 SN VV004 TEMPO 1701/1718 25011KT BECMG 1710/1712 3000 NSW BKN015 PROB40 TEMPO 1712/1721 28012KT 1500 SHSN BKN005

Previous Pireps for this route
Date Aircraft Flight time Fuel used Landing rate On time
2017-04-18B1900D0.273470Charter
2017-08-21B1900D0.31460-458Charter
2018-08-07B1900D0.324610Yes
2018-09-19B1900D0.302190Charter
(pireps marked green are flown by you)

Route map